sensor_id;sensor_type;location;lat;lon;timestamp;P1;durP1;ratioP1;P2;durP2;ratioP2
48765;SDS011;65794;51.836;5.002;2022-12-08T00:03:13;24.55;;;9.38;;
48765;SDS011;65794;51.836;5.002;2022-12-08T00:05:45;19.48;;;9.60;;
48765;SDS011;65794;51.836;5.002;2022-12-08T00:08:30;23.88;;;10.68;;
48765;SDS011;65794;51.836;5.002;2022-12-08T00:11:15;22.52;;;9.95;;
48765;SDS011;65794;51.836;5.002;2022-12-08T00:13:41;17.33;;;8.13;;
48765;SDS011;65794;51.836;5.002;2022-12-08T00:16:07;22.23;;;8.63;;
48765;SDS011;65794;51.836;5.002;2022-12-08T00:18:33;15.13;;;8.23;;
48765;SDS011;65794;51.836;5.002;2022-12-08T00:20:59;22.65;;;8.25;;
48765;SDS011;65794;51.836;5.002;2022-12-08T00:23:24;19.98;;;8.25;;
48765;SDS011;65794;51.836;5.002;2022-12-08T00:25:50;17.88;;;8.10;;
48765;SDS011;65794;51.836;5.002;2022-12-08T00:28:16;18.48;;;8.60;;
48765;SDS011;65794;51.836;5.002;2022-12-08T00:30:42;13.48;;;7.00;;
48765;SDS011;65794;51.836;5.002;2022-12-08T00:33:08;20.13;;;7.80;;
48765;SDS011;65794;51.836;5.002;2022-12-08T00:35:34;14.48;;;6.70;;
48765;SDS011;65794;51.836;5.002;2022-12-08T00:37:59;15.82;;;6.05;;
48765;SDS011;65794;51.836;5.002;2022-12-08T00:40:25;15.25;;;6.00;;
48765;SDS011;65794;51.836;5.002;2022-12-08T00:42:51;13.25;;;5.70;;
48765;SDS011;65794;51.836;5.002;2022-12-08T00:45:17;11.45;;;5.22;;
48765;SDS011;65794;51.836;5.002;2022-12-08T00:47:42;13.90;;;5.65;;
48765;SDS011;65794;51.836;5.002;2022-12-08T00:50:08;17.90;;;6.18;;
48765;SDS011;65794;51.836;5.002;2022-12-08T00:52:34;15.18;;;5.97;;
48765;SDS011;65794;51.836;5.002;2022-12-08T00:55:00;14.00;;;5.72;;
48765;SDS011;65794;51.836;5.002;2022-12-08T00:57:26;11.98;;;4.70;;
48765;SDS011;65794;51.836;5.002;2022-12-08T00:59:52;18.95;;;5.47;;
48765;SDS011;65794;51.836;5.002;2022-12-08T01:02:17;9.15;;;3.63;;
48765;SDS011;65794;51.836;5.002;2022-12-08T01:04:43;9.65;;;4.13;;
48765;SDS011;65794;51.836;5.002;2022-12-08T01:07:09;10.70;;;4.53;;
48765;SDS011;65794;51.836;5.002;2022-12-08T01:09:35;11.20;;;3.83;;
48765;SDS011;65794;51.836;5.002;2022-12-08T01:12:00;12.90;;;4.53;;
48765;SDS011;65794;51.836;5.002;2022-12-08T01:14:26;9.38;;;4.88;;
48765;SDS011;65794;51.836;5.002;2022-12-08T01:16:52;21.83;;;7.05;;
48765;SDS011;65794;51.836;5.002;2022-12-08T01:19:18;15.80;;;7.22;;
48765;SDS011;65794;51.836;5.002;2022-12-08T01:21:44;22.33;;;7.53;;
48765;SDS011;65794;51.836;5.002;2022-12-08T01:24:14;16.95;;;7.28;;
48765;SDS011;65794;51.836;5.002;2022-12-08T01:26:40;14.23;;;6.60;;
48765;SDS011;65794;51.836;5.002;2022-12-08T01:29:06;14.80;;;7.05;;
48765;SDS011;65794;51.836;5.002;2022-12-08T01:31:31;20.95;;;7.55;;
48765;SDS011;65794;51.836;5.002;2022-12-08T01:33:57;13.35;;;6.45;;
48765;SDS011;65794;51.836;5.002;2022-12-08T01:36:24;12.98;;;5.50;;
48765;SDS011;65794;51.836;5.002;2022-12-08T01:38:50;11.88;;;5.38;;
48765;SDS011;65794;51.836;5.002;2022-12-08T01:41:17;13.15;;;4.78;;
48765;SDS011;65794;51.836;5.002;2022-12-08T01:46:37;11.23;;;4.13;;
48765;SDS011;65794;51.836;5.002;2022-12-08T01:49:07;10.38;;;3.72;;
48765;SDS011;65794;51.836;5.002;2022-12-08T01:51:45;7.40;;;3.35;;
48765;SDS011;65794;51.836;5.002;2022-12-08T01:54:13;7.55;;;2.50;;
48765;SDS011;65794;51.836;5.002;2022-12-08T01:56:40;8.85;;;2.95;;
48765;SDS011;65794;51.836;5.002;2022-12-08T01:59:08;7.80;;;2.22;;
48765;SDS011;65794;51.836;5.002;2022-12-08T02:01:35;6.10;;;1.90;;
48765;SDS011;65794;51.836;5.002;2022-12-08T02:04:01;5.40;;;1.95;;
48765;SDS011;65794;51.836;5.002;2022-12-08T02:06:28;6.40;;;2.03;;
48765;SDS011;65794;51.836;5.002;2022-12-08T02:08:55;3.58;;;1.27;;
48765;SDS011;65794;51.836;5.002;2022-12-08T02:11:22;7.80;;;1.30;;
48765;SDS011;65794;51.836;5.002;2022-12-08T02:13:48;4.57;;;1.08;;
48765;SDS011;65794;51.836;5.002;2022-12-08T02:21:40;1.40;;;0.50;;
48765;SDS011;65794;51.836;5.002;2022-12-08T02:31:48;2.65;;;0.80;;
48765;SDS011;65794;51.836;5.002;2022-12-08T02:41:55;1.00;;;0.47;;
48765;SDS011;65794;51.836;5.002;2022-12-08T02:44:28;1.75;;;0.50;;
48765;SDS011;65794;51.836;5.002;2022-12-08T02:46:59;0.70;;;0.30;;
48765;SDS011;65794;51.836;5.002;2022-12-08T02:49:33;5.90;;;0.40;;
48765;SDS011;65794;51.836;5.002;2022-12-08T02:54:41;1.20;;;0.40;;
48765;SDS011;65794;51.836;5.002;2022-12-08T02:59:48;2.97;;;0.52;;
48765;SDS011;65794;51.836;5.002;2022-12-08T03:02:53;2.53;;;0.70;;
48765;SDS011;65794;51.836;5.002;2022-12-08T03:07:45;8.15;;;1.25;;
48765;SDS011;65794;51.836;5.002;2022-12-08T03:10:24;3.42;;;0.60;;
48765;SDS011;65794;51.836;5.002;2022-12-08T03:12:54;1.27;;;0.52;;
48765;SDS011;65794;51.836;5.002;2022-12-08T03:15:20;2.92;;;0.50;;
48765;SDS011;65794;51.836;5.002;2022-12-08T03:17:49;3.20;;;0.88;;
48765;SDS011;65794;51.836;5.002;2022-12-08T03:20:17;3.85;;;0.60;;
48765;SDS011;65794;51.836;5.002;2022-12-08T03:22:44;4.78;;;0.85;;
48765;SDS011;65794;51.836;5.002;2022-12-08T03:25:11;4.10;;;0.52;;
48765;SDS011;65794;51.836;5.002;2022-12-08T03:27:38;2.58;;;0.88;;
48765;SDS011;65794;51.836;5.002;2022-12-08T03:30:04;2.05;;;0.63;;
48765;SDS011;65794;51.836;5.002;2022-12-08T03:32:39;2.45;;;0.65;;
48765;SDS011;65794;51.836;5.002;2022-12-08T03:35:16;3.85;;;1.10;;
48765;SDS011;65794;51.836;5.002;2022-12-08T03:37:44;2.28;;;0.90;;
48765;SDS011;65794;51.836;5.002;2022-12-08T03:40:11;2.40;;;0.65;;
48765;SDS011;65794;51.836;5.002;2022-12-08T03:42:37;4.20;;;1.08;;
48765;SDS011;65794;51.836;5.002;2022-12-08T03:45:03;3.05;;;1.20;;
48765;SDS011;65794;51.836;5.002;2022-12-08T03:47:29;4.13;;;1.17;;
48765;SDS011;65794;51.836;5.002;2022-12-08T03:49:55;4.70;;;1.23;;
48765;SDS011;65794;51.836;5.002;2022-12-08T03:52:20;7.53;;;1.85;;
48765;SDS011;65794;51.836;5.002;2022-12-08T03:54:46;6.00;;;1.40;;
48765;SDS011;65794;51.836;5.002;2022-12-08T03:57:12;3.65;;;1.40;;
48765;SDS011;65794;51.836;5.002;2022-12-08T03:59:38;4.22;;;1.48;;
48765;SDS011;65794;51.836;5.002;2022-12-08T04:02:04;6.47;;;1.40;;
48765;SDS011;65794;51.836;5.002;2022-12-08T04:04:29;3.85;;;1.15;;
48765;SDS011;65794;51.836;5.002;2022-12-08T04:06:55;5.55;;;1.30;;
48765;SDS011;65794;51.836;5.002;2022-12-08T04:09:21;2.10;;;0.80;;
48765;SDS011;65794;51.836;5.002;2022-12-08T04:11:47;3.83;;;1.02;;
48765;SDS011;65794;51.836;5.002;2022-12-08T04:16:38;9.80;;;1.05;;
48765;SDS011;65794;51.836;5.002;2022-12-08T04:19:04;7.00;;;1.02;;
48765;SDS011;65794;51.836;5.002;2022-12-08T04:23:55;2.85;;;0.90;;
48765;SDS011;65794;51.836;5.002;2022-12-08T04:26:21;3.08;;;1.15;;
48765;SDS011;65794;51.836;5.002;2022-12-08T04:28:47;3.90;;;0.43;;
48765;SDS011;65794;51.836;5.002;2022-12-08T04:31:13;8.55;;;0.90;;
48765;SDS011;65794;51.836;5.002;2022-12-08T04:33:38;6.40;;;0.65;;
48765;SDS011;65794;51.836;5.002;2022-12-08T04:36:04;6.00;;;0.73;;
48765;SDS011;65794;51.836;5.002;2022-12-08T04:38:31;7.00;;;0.80;;
48765;SDS011;65794;51.836;5.002;2022-12-08T04:40:57;2.10;;;0.70;;
48765;SDS011;65794;51.836;5.002;2022-12-08T04:43:23;2.13;;;0.90;;
48765;SDS011;65794;51.836;5.002;2022-12-08T04:45:49;9.27;;;1.73;;
48765;SDS011;65794;51.836;5.002;2022-12-08T04:48:14;5.05;;;1.63;;
48765;SDS011;65794;51.836;5.002;2022-12-08T04:50:41;6.22;;;1.50;;
48765;SDS011;65794;51.836;5.002;2022-12-08T04:53:07;7.28;;;1.95;;
48765;SDS011;65794;51.836;5.002;2022-12-08T04:55:33;4.10;;;1.85;;
48765;SDS011;65794;51.836;5.002;2022-12-08T04:57:59;3.15;;;1.40;;
48765;SDS011;65794;51.836;5.002;2022-12-08T05:00:24;5.90;;;1.75;;
48765;SDS011;65794;51.836;5.002;2022-12-08T05:02:50;4.28;;;1.73;;
48765;SDS011;65794;51.836;5.002;2022-12-08T05:05:16;4.53;;;2.25;;
48765;SDS011;65794;51.836;5.002;2022-12-08T05:10:07;5.25;;;1.63;;
48765;SDS011;65794;51.836;5.002;2022-12-08T05:12:33;5.10;;;1.20;;
48765;SDS011;65794;51.836;5.002;2022-12-08T05:14:59;3.45;;;0.70;;
48765;SDS011;65794;51.836;5.002;2022-12-08T05:17:25;5.05;;;0.80;;
48765;SDS011;65794;51.836;5.002;2022-12-08T05:19:50;2.28;;;0.50;;
48765;SDS011;65794;51.836;5.002;2022-12-08T05:22:16;1.98;;;0.40;;
48765;SDS011;65794;51.836;5.002;2022-12-08T05:24:42;1.38;;;0.40;;
48765;SDS011;65794;51.836;5.002;2022-12-08T05:27:08;1.50;;;0.50;;
48765;SDS011;65794;51.836;5.002;2022-12-08T05:29:34;1.80;;;0.50;;
48765;SDS011;65794;51.836;5.002;2022-12-08T05:31:59;0.85;;;0.30;;
48765;SDS011;65794;51.836;5.002;2022-12-08T05:36:51;0.82;;;0.30;;
48765;SDS011;65794;51.836;5.002;2022-12-08T05:39:17;2.35;;;0.40;;
48765;SDS011;65794;51.836;5.002;2022-12-08T05:41:43;1.10;;;0.32;;
48765;SDS011;65794;51.836;5.002;2022-12-08T05:44:09;1.02;;;0.38;;
48765;SDS011;65794;51.836;5.002;2022-12-08T05:46:35;0.63;;;0.32;;
48765;SDS011;65794;51.836;5.002;2022-12-08T05:49:01;1.55;;;0.40;;
48765;SDS011;65794;51.836;5.002;2022-12-08T05:51:27;1.58;;;0.35;;
48765;SDS011;65794;51.836;5.002;2022-12-08T05:53:53;5.07;;;0.80;;
48765;SDS011;65794;51.836;5.002;2022-12-08T05:58:44;6.22;;;0.63;;
48765;SDS011;65794;51.836;5.002;2022-12-08T06:01:26;1.95;;;0.60;;
48765;SDS011;65794;51.836;5.002;2022-12-08T06:03:52;4.40;;;0.65;;
48765;SDS011;65794;51.836;5.002;2022-12-08T06:06:18;3.83;;;0.52;;
48765;SDS011;65794;51.836;5.002;2022-12-08T06:08:44;4.40;;;0.50;;
48765;SDS011;65794;51.836;5.002;2022-12-08T06:11:16;1.20;;;0.43;;
48765;SDS011;65794;51.836;5.002;2022-12-08T06:13:42;1.05;;;0.38;;
48765;SDS011;65794;51.836;5.002;2022-12-08T06:16:07;3.42;;;0.40;;
48765;SDS011;65794;51.836;5.002;2022-12-08T06:18:33;2.05;;;0.55;;
48765;SDS011;65794;51.836;5.002;2022-12-08T06:21:01;9.38;;;1.08;;
48765;SDS011;65794;51.836;5.002;2022-12-08T06:23:27;1.30;;;0.60;;
48765;SDS011;65794;51.836;5.002;2022-12-08T06:25:53;3.55;;;0.70;;
48765;SDS011;65794;51.836;5.002;2022-12-08T06:28:18;2.95;;;0.60;;
48765;SDS011;65794;51.836;5.002;2022-12-08T06:30:44;1.20;;;0.60;;
48765;SDS011;65794;51.836;5.002;2022-12-08T06:33:10;3.95;;;0.68;;
48765;SDS011;65794;51.836;5.002;2022-12-08T06:35:35;3.30;;;0.82;;
48765;SDS011;65794;51.836;5.002;2022-12-08T06:38:01;4.20;;;0.85;;
48765;SDS011;65794;51.836;5.002;2022-12-08T06:40:27;5.63;;;0.80;;
48765;SDS011;65794;51.836;5.002;2022-12-08T06:42:53;4.13;;;0.73;;
48765;SDS011;65794;51.836;5.002;2022-12-08T06:45:18;8.00;;;0.95;;
48765;SDS011;65794;51.836;5.002;2022-12-08T06:47:44;8.27;;;1.15;;
48765;SDS011;65794;51.836;5.002;2022-12-08T06:50:10;3.15;;;1.17;;
48765;SDS011;65794;51.836;5.002;2022-12-08T06:52:36;1.92;;;0.88;;
48765;SDS011;65794;51.836;5.002;2022-12-08T06:55:02;4.43;;;1.10;;
48765;SDS011;65794;51.836;5.002;2022-12-08T06:57:28;7.40;;;1.40;;
48765;SDS011;65794;51.836;5.002;2022-12-08T07:02:19;4.07;;;0.93;;
48765;SDS011;65794;51.836;5.002;2022-12-08T07:04:45;2.35;;;0.85;;
48765;SDS011;65794;51.836;5.002;2022-12-08T07:07:11;1.42;;;0.60;;
48765;SDS011;65794;51.836;5.002;2022-12-08T07:09:37;3.28;;;0.75;;
48765;SDS011;65794;51.836;5.002;2022-12-08T07:12:03;1.73;;;0.40;;
48765;SDS011;65794;51.836;5.002;2022-12-08T07:14:29;0.40;;;0.30;;
48765;SDS011;65794;51.836;5.002;2022-12-08T07:16:54;0.50;;;0.30;;
48765;SDS011;65794;51.836;5.002;2022-12-08T07:19:20;0.65;;;0.20;;
48765;SDS011;65794;51.836;5.002;2022-12-08T07:21:46;0.40;;;0.20;;
48765;SDS011;65794;51.836;5.002;2022-12-08T07:24:12;5.13;;;0.40;;
48765;SDS011;65794;51.836;5.002;2022-12-08T07:26:39;0.30;;;0.30;;
48765;SDS011;65794;51.836;5.002;2022-12-08T07:29:05;1.20;;;0.40;;
48765;SDS011;65794;51.836;5.002;2022-12-08T07:31:31;1.98;;;0.30;;
48765;SDS011;65794;51.836;5.002;2022-12-08T07:33:56;1.27;;;0.22;;
48765;SDS011;65794;51.836;5.002;2022-12-08T07:36:23;0.68;;;0.22;;
48765;SDS011;65794;51.836;5.002;2022-12-08T07:38:49;1.20;;;0.40;;
48765;SDS011;65794;51.836;5.002;2022-12-08T07:41:16;3.65;;;0.50;;
48765;SDS011;65794;51.836;5.002;2022-12-08T07:43:42;0.63;;;0.30;;
48765;SDS011;65794;51.836;5.002;2022-12-08T07:46:10;1.50;;;0.60;;
48765;SDS011;65794;51.836;5.002;2022-12-08T07:48:36;1.15;;;0.60;;
48765;SDS011;65794;51.836;5.002;2022-12-08T07:51:02;1.33;;;0.60;;
48765;SDS011;65794;51.836;5.002;2022-12-08T07:53:28;3.50;;;0.63;;
48765;SDS011;65794;51.836;5.002;2022-12-08T07:55:54;0.90;;;0.40;;
48765;SDS011;65794;51.836;5.002;2022-12-08T07:58:19;1.08;;;0.50;;
48765;SDS011;65794;51.836;5.002;2022-12-08T08:00:45;0.77;;;0.43;;
48765;SDS011;65794;51.836;5.002;2022-12-08T08:03:11;1.65;;;0.80;;
48765;SDS011;65794;51.836;5.002;2022-12-08T08:05:36;4.55;;;0.70;;
48765;SDS011;65794;51.836;5.002;2022-12-08T08:08:02;4.20;;;0.73;;
48765;SDS011;65794;51.836;5.002;2022-12-08T08:10:28;2.08;;;0.85;;
48765;SDS011;65794;51.836;5.002;2022-12-08T08:12:56;3.03;;;1.05;;
48765;SDS011;65794;51.836;5.002;2022-12-08T08:15:22;2.80;;;1.17;;
48765;SDS011;65794;51.836;5.002;2022-12-08T08:17:49;4.65;;;1.30;;
48765;SDS011;65794;51.836;5.002;2022-12-08T08:20:18;2.47;;;1.00;;
48765;SDS011;65794;51.836;5.002;2022-12-08T08:22:44;4.50;;;1.60;;
48765;SDS011;65794;51.836;5.002;2022-12-08T08:25:10;3.65;;;1.35;;
48765;SDS011;65794;51.836;5.002;2022-12-08T08:27:36;3.63;;;1.80;;
48765;SDS011;65794;51.836;5.002;2022-12-08T08:30:02;2.83;;;1.13;;
48765;SDS011;65794;51.836;5.002;2022-12-08T08:32:30;4.80;;;1.60;;
48765;SDS011;65794;51.836;5.002;2022-12-08T08:34:56;4.68;;;2.00;;
48765;SDS011;65794;51.836;5.002;2022-12-08T08:37:22;4.00;;;1.75;;
48765;SDS011;65794;51.836;5.002;2022-12-08T08:39:47;6.82;;;2.03;;
48765;SDS011;65794;51.836;5.002;2022-12-08T08:42:13;4.95;;;2.03;;
48765;SDS011;65794;51.836;5.002;2022-12-08T08:44:39;4.75;;;2.08;;
48765;SDS011;65794;51.836;5.002;2022-12-08T08:47:05;5.95;;;2.10;;
48765;SDS011;65794;51.836;5.002;2022-12-08T08:49:31;4.65;;;2.05;;
48765;SDS011;65794;51.836;5.002;2022-12-08T08:51:57;4.88;;;2.20;;
48765;SDS011;65794;51.836;5.002;2022-12-08T08:54:22;5.10;;;2.35;;
48765;SDS011;65794;51.836;5.002;2022-12-08T08:56:48;7.55;;;2.85;;
48765;SDS011;65794;51.836;5.002;2022-12-08T09:01:40;6.47;;;2.50;;
48765;SDS011;65794;51.836;5.002;2022-12-08T09:04:05;7.82;;;2.78;;
48765;SDS011;65794;51.836;5.002;2022-12-08T09:06:31;7.63;;;3.03;;
48765;SDS011;65794;51.836;5.002;2022-12-08T09:11:23;10.07;;;3.60;;
48765;SDS011;65794;51.836;5.002;2022-12-08T09:13:49;8.35;;;3.58;;
48765;SDS011;65794;51.836;5.002;2022-12-08T09:16:15;8.50;;;4.13;;
48765;SDS011;65794;51.836;5.002;2022-12-08T09:18:41;9.50;;;4.30;;
48765;SDS011;65794;51.836;5.002;2022-12-08T09:21:10;11.93;;;4.00;;
48765;SDS011;65794;51.836;5.002;2022-12-08T09:23:41;9.15;;;3.70;;
48765;SDS011;65794;51.836;5.002;2022-12-08T09:26:07;8.50;;;3.92;;
48765;SDS011;65794;51.836;5.002;2022-12-08T09:28:33;8.13;;;2.78;;
48765;SDS011;65794;51.836;5.002;2022-12-08T09:30:59;3.33;;;2.05;;
48765;SDS011;65794;51.836;5.002;2022-12-08T09:33:24;5.47;;;2.65;;
48765;SDS011;65794;51.836;5.002;2022-12-08T09:38:16;5.75;;;2.60;;
48765;SDS011;65794;51.836;5.002;2022-12-08T09:40:46;5.45;;;2.33;;
48765;SDS011;65794;51.836;5.002;2022-12-08T09:45:54;5.53;;;2.67;;
48765;SDS011;65794;51.836;5.002;2022-12-08T09:48:24;6.35;;;3.10;;
48765;SDS011;65794;51.836;5.002;2022-12-08T09:50:55;5.05;;;2.58;;
48765;SDS011;65794;51.836;5.002;2022-12-08T09:53:30;3.65;;;1.90;;
48765;SDS011;65794;51.836;5.002;2022-12-08T09:56:00;4.75;;;1.20;;
48765;SDS011;65794;51.836;5.002;2022-12-08T10:00:56;6.55;;;2.20;;
48765;SDS011;65794;51.836;5.002;2022-12-08T10:03:23;5.95;;;3.13;;
48765;SDS011;65794;51.836;5.002;2022-12-08T10:06:10;5.65;;;3.20;;
48765;SDS011;65794;51.836;5.002;2022-12-08T10:08:42;5.97;;;3.40;;
48765;SDS011;65794;51.836;5.002;2022-12-08T10:11:13;6.68;;;3.97;;
48765;SDS011;65794;51.836;5.002;2022-12-08T10:13:42;6.43;;;3.47;;
48765;SDS011;65794;51.836;5.002;2022-12-08T10:18:39;8.32;;;3.55;;
48765;SDS011;65794;51.836;5.002;2022-12-08T10:21:15;6.53;;;3.88;;
48765;SDS011;65794;51.836;5.002;2022-12-08T10:23:54;10.13;;;4.13;;
48765;SDS011;65794;51.836;5.002;2022-12-08T10:26:23;11.68;;;5.07;;
48765;SDS011;65794;51.836;5.002;2022-12-08T10:28:49;11.95;;;6.03;;
48765;SDS011;65794;51.836;5.002;2022-12-08T10:31:19;9.32;;;6.00;;
48765;SDS011;65794;51.836;5.002;2022-12-08T10:33:45;12.68;;;6.00;;
48765;SDS011;65794;51.836;5.002;2022-12-08T10:36:12;12.73;;;6.30;;
48765;SDS011;65794;51.836;5.002;2022-12-08T10:38:38;8.50;;;5.30;;
48765;SDS011;65794;51.836;5.002;2022-12-08T10:46:20;10.23;;;4.68;;
48765;SDS011;65794;51.836;5.002;2022-12-08T10:48:54;5.93;;;3.08;;
48765;SDS011;65794;51.836;5.002;2022-12-08T10:51:40;6.65;;;3.35;;
48765;SDS011;65794;51.836;5.002;2022-12-08T10:56:54;6.63;;;2.58;;
48765;SDS011;65794;51.836;5.002;2022-12-08T10:59:20;6.07;;;2.75;;
48765;SDS011;65794;51.836;5.002;2022-12-08T11:01:49;7.03;;;3.47;;
48765;SDS011;65794;51.836;5.002;2022-12-08T11:06:44;6.45;;;2.95;;
48765;SDS011;65794;51.836;5.002;2022-12-08T11:11:49;2.05;;;1.10;;
48765;SDS011;65794;51.836;5.002;2022-12-08T11:14:17;3.17;;;1.20;;
48765;SDS011;65794;51.836;5.002;2022-12-08T11:16:43;1.73;;;0.90;;
48765;SDS011;65794;51.836;5.002;2022-12-08T11:19:13;4.78;;;1.30;;
48765;SDS011;65794;51.836;5.002;2022-12-08T11:21:39;1.98;;;0.80;;
48765;SDS011;65794;51.836;5.002;2022-12-08T11:26:58;3.47;;;0.80;;
48765;SDS011;65794;51.836;5.002;2022-12-08T11:29:25;2.72;;;0.90;;
48765;SDS011;65794;51.836;5.002;2022-12-08T11:32:12;6.53;;;1.05;;
48765;SDS011;65794;51.836;5.002;2022-12-08T11:34:40;2.47;;;1.00;;
48765;SDS011;65794;51.836;5.002;2022-12-08T11:37:09;3.50;;;1.10;;
48765;SDS011;65794;51.836;5.002;2022-12-08T11:39:39;3.03;;;0.85;;
48765;SDS011;65794;51.836;5.002;2022-12-08T11:42:09;2.22;;;0.80;;
48765;SDS011;65794;51.836;5.002;2022-12-08T11:44:39;2.22;;;0.88;;
48765;SDS011;65794;51.836;5.002;2022-12-08T11:47:10;4.68;;;0.82;;
48765;SDS011;65794;51.836;5.002;2022-12-08T11:49:38;2.13;;;0.63;;
48765;SDS011;65794;51.836;5.002;2022-12-08T11:54:33;2.85;;;1.20;;
48765;SDS011;65794;51.836;5.002;2022-12-08T11:57:01;5.20;;;1.60;;
48765;SDS011;65794;51.836;5.002;2022-12-08T11:59:29;3.20;;;1.50;;
48765;SDS011;65794;51.836;5.002;2022-12-08T12:01:59;3.45;;;1.77;;
48765;SDS011;65794;51.836;5.002;2022-12-08T12:04:31;6.28;;;2.00;;
48765;SDS011;65794;51.836;5.002;2022-12-08T12:09:50;2.80;;;1.23;;
48765;SDS011;65794;51.836;5.002;2022-12-08T12:20:12;3.15;;;1.33;;
48765;SDS011;65794;51.836;5.002;2022-12-08T12:22:40;4.22;;;1.98;;
48765;SDS011;65794;51.836;5.002;2022-12-08T12:25:14;5.07;;;1.88;;
48765;SDS011;65794;51.836;5.002;2022-12-08T12:27:40;7.13;;;1.83;;
48765;SDS011;65794;51.836;5.002;2022-12-08T12:30:17;4.75;;;2.20;;
48765;SDS011;65794;51.836;5.002;2022-12-08T12:32:44;3.58;;;1.88;;
48765;SDS011;65794;51.836;5.002;2022-12-08T12:35:15;3.92;;;1.77;;
48765;SDS011;65794;51.836;5.002;2022-12-08T12:37:43;2.90;;;1.50;;
48765;SDS011;65794;51.836;5.002;2022-12-08T12:40:16;6.80;;;1.65;;
48765;SDS011;65794;51.836;5.002;2022-12-08T12:42:47;4.50;;;1.58;;
48765;SDS011;65794;51.836;5.002;2022-12-08T12:50:35;2.55;;;0.50;;
48765;SDS011;65794;51.836;5.002;2022-12-08T12:53:01;2.13;;;0.70;;
48765;SDS011;65794;51.836;5.002;2022-12-08T12:55:28;2.75;;;0.70;;
48765;SDS011;65794;51.836;5.002;2022-12-08T13:03:39;4.55;;;1.35;;
48765;SDS011;65794;51.836;5.002;2022-12-08T13:06:05;5.65;;;1.05;;
48765;SDS011;65794;51.836;5.002;2022-12-08T13:08:32;3.55;;;1.10;;
48765;SDS011;65794;51.836;5.002;2022-12-08T13:11:05;2.08;;;1.02;;
48765;SDS011;65794;51.836;5.002;2022-12-08T13:13:31;4.30;;;1.10;;
48765;SDS011;65794;51.836;5.002;2022-12-08T13:31:40;8.45;;;2.83;;
48765;SDS011;65794;51.836;5.002;2022-12-08T13:34:08;6.18;;;2.80;;
48765;SDS011;65794;51.836;5.002;2022-12-08T13:36:37;7.28;;;2.40;;
48765;SDS011;65794;51.836;5.002;2022-12-08T13:39:04;4.20;;;2.60;;
48765;SDS011;65794;51.836;5.002;2022-12-08T13:41:34;8.40;;;3.30;;
48765;SDS011;65794;51.836;5.002;2022-12-08T13:44:03;6.60;;;2.70;;
48765;SDS011;65794;51.836;5.002;2022-12-08T13:46:33;7.25;;;2.80;;
48765;SDS011;65794;51.836;5.002;2022-12-08T13:49:00;7.50;;;3.47;;
48765;SDS011;65794;51.836;5.002;2022-12-08T13:51:28;6.45;;;3.28;;
48765;SDS011;65794;51.836;5.002;2022-12-08T13:56:22;12.20;;;3.67;;
48765;SDS011;65794;51.836;5.002;2022-12-08T13:58:48;7.30;;;3.87;;
48765;SDS011;65794;51.836;5.002;2022-12-08T14:01:15;5.15;;;3.08;;
48765;SDS011;65794;51.836;5.002;2022-12-08T14:03:50;6.63;;;3.42;;
48765;SDS011;65794;51.836;5.002;2022-12-08T14:06:18;8.68;;;3.63;;
48765;SDS011;65794;51.836;5.002;2022-12-08T14:08:50;7.00;;;3.78;;
48765;SDS011;65794;51.836;5.002;2022-12-08T14:11:30;10.23;;;4.78;;
48765;SDS011;65794;51.836;5.002;2022-12-08T14:16:48;10.50;;;5.57;;
48765;SDS011;65794;51.836;5.002;2022-12-08T14:19:15;11.27;;;6.43;;
48765;SDS011;65794;51.836;5.002;2022-12-08T14:21:45;11.38;;;6.20;;
48765;SDS011;65794;51.836;5.002;2022-12-08T14:24:10;10.18;;;5.25;;
48765;SDS011;65794;51.836;5.002;2022-12-08T14:26:36;10.00;;;5.32;;
48765;SDS011;65794;51.836;5.002;2022-12-08T14:29:02;11.50;;;5.45;;
48765;SDS011;65794;51.836;5.002;2022-12-08T14:31:31;8.63;;;4.00;;
48765;SDS011;65794;51.836;5.002;2022-12-08T14:33:56;9.52;;;3.60;;
48765;SDS011;65794;51.836;5.002;2022-12-08T14:36:23;8.02;;;3.40;;
48765;SDS011;65794;51.836;5.002;2022-12-08T14:38:49;6.45;;;3.25;;
48765;SDS011;65794;51.836;5.002;2022-12-08T14:41:16;7.95;;;2.97;;
48765;SDS011;65794;51.836;5.002;2022-12-08T14:43:56;5.70;;;3.05;;
48765;SDS011;65794;51.836;5.002;2022-12-08T14:46:22;7.07;;;2.90;;
48765;SDS011;65794;51.836;5.002;2022-12-08T14:48:48;6.82;;;3.30;;
48765;SDS011;65794;51.836;5.002;2022-12-08T14:51:22;9.80;;;3.30;;
48765;SDS011;65794;51.836;5.002;2022-12-08T15:01:32;5.53;;;2.47;;
48765;SDS011;65794;51.836;5.002;2022-12-08T15:04:06;9.13;;;3.38;;
48765;SDS011;65794;51.836;5.002;2022-12-08T15:06:35;9.30;;;3.03;;
48765;SDS011;65794;51.836;5.002;2022-12-08T15:09:13;7.70;;;3.13;;
48765;SDS011;65794;51.836;5.002;2022-12-08T15:11:39;5.60;;;2.60;;
48765;SDS011;65794;51.836;5.002;2022-12-08T15:14:23;11.25;;;3.15;;
48765;SDS011;65794;51.836;5.002;2022-12-08T15:16:50;6.88;;;2.50;;
48765;SDS011;65794;51.836;5.002;2022-12-08T15:19:36;4.47;;;2.42;;
48765;SDS011;65794;51.836;5.002;2022-12-08T15:22:12;5.93;;;2.20;;
48765;SDS011;65794;51.836;5.002;2022-12-08T15:24:38;11.07;;;2.60;;
48765;SDS011;65794;51.836;5.002;2022-12-08T15:27:04;4.70;;;2.70;;
48765;SDS011;65794;51.836;5.002;2022-12-08T15:29:29;6.78;;;3.08;;
48765;SDS011;65794;51.836;5.002;2022-12-08T15:31:56;10.15;;;3.88;;
48765;SDS011;65794;51.836;5.002;2022-12-08T15:34:25;8.50;;;3.97;;
48765;SDS011;65794;51.836;5.002;2022-12-08T15:36:51;6.45;;;2.80;;
48765;SDS011;65794;51.836;5.002;2022-12-08T15:39:27;7.22;;;2.85;;
48765;SDS011;65794;51.836;5.002;2022-12-08T15:41:54;6.80;;;3.05;;
48765;SDS011;65794;51.836;5.002;2022-12-08T15:44:20;6.60;;;2.70;;
48765;SDS011;65794;51.836;5.002;2022-12-08T15:46:45;11.38;;;2.45;;
48765;SDS011;65794;51.836;5.002;2022-12-08T15:49:15;5.05;;;1.30;;
48765;SDS011;65794;51.836;5.002;2022-12-08T15:51:41;4.35;;;1.30;;
48765;SDS011;65794;51.836;5.002;2022-12-08T15:54:07;3.80;;;1.33;;
48765;SDS011;65794;51.836;5.002;2022-12-08T15:56:33;7.05;;;1.92;;
48765;SDS011;65794;51.836;5.002;2022-12-08T15:58:58;5.25;;;1.60;;
48765;SDS011;65794;51.836;5.002;2022-12-08T16:03:50;3.22;;;1.40;;
48765;SDS011;65794;51.836;5.002;2022-12-08T16:08:41;2.72;;;1.23;;
48765;SDS011;65794;51.836;5.002;2022-12-08T16:11:07;9.43;;;1.88;;
48765;SDS011;65794;51.836;5.002;2022-12-08T16:13:51;3.72;;;1.30;;
48765;SDS011;65794;51.836;5.002;2022-12-08T16:16:17;5.40;;;1.80;;
48765;SDS011;65794;51.836;5.002;2022-12-08T16:18:46;3.88;;;1.23;;
48765;SDS011;65794;51.836;5.002;2022-12-08T16:21:12;6.55;;;1.95;;
48765;SDS011;65794;51.836;5.002;2022-12-08T16:23:38;4.82;;;2.03;;
48765;SDS011;65794;51.836;5.002;2022-12-08T16:26:04;5.72;;;1.77;;
48765;SDS011;65794;51.836;5.002;2022-12-08T16:28:30;4.53;;;2.08;;
48765;SDS011;65794;51.836;5.002;2022-12-08T16:30:55;6.50;;;2.88;;
48765;SDS011;65794;51.836;5.002;2022-12-08T16:33:22;10.07;;;3.65;;
48765;SDS011;65794;51.836;5.002;2022-12-08T16:35:47;12.05;;;4.85;;
48765;SDS011;65794;51.836;5.002;2022-12-08T16:38:13;10.65;;;4.57;;
48765;SDS011;65794;51.836;5.002;2022-12-08T16:40:42;9.13;;;4.15;;
48765;SDS011;65794;51.836;5.002;2022-12-08T16:43:28;11.38;;;4.88;;
48765;SDS011;65794;51.836;5.002;2022-12-08T16:45:54;7.78;;;4.28;;
48765;SDS011;65794;51.836;5.002;2022-12-08T16:48:20;9.35;;;3.80;;
48765;SDS011;65794;51.836;5.002;2022-12-08T16:50:46;11.63;;;4.88;;
48765;SDS011;65794;51.836;5.002;2022-12-08T16:53:13;9.07;;;4.47;;
48765;SDS011;65794;51.836;5.002;2022-12-08T16:55:39;13.00;;;4.90;;
48765;SDS011;65794;51.836;5.002;2022-12-08T16:58:05;11.05;;;5.35;;
48765;SDS011;65794;51.836;5.002;2022-12-08T17:00:32;17.40;;;6.07;;
48765;SDS011;65794;51.836;5.002;2022-12-08T17:03:02;10.65;;;5.45;;
48765;SDS011;65794;51.836;5.002;2022-12-08T17:05:28;10.25;;;4.82;;